Aviation Digital Data Service (ADDS)

Output produced by METARs form (0713 UTC 24 November 2017)
found at http://aviationweather.gov/adds/metars/
 
KASD 240524Z 2406/2506 01004KT P6SM SKC